Time;durP1;ratioP1;P1;durP2;ratioP2;P2;SDS_P1;SDS_P2;PMS_P1;PMS_P2;Temp;Humidity;BMP_temperature;BMP_pressure;BME280_temperature;BME280_humidity;BME280_pressure;Samples;Min_cycle;Max_cycle;Signal;HPM_P1;HPM_P2
2021/03/23 00:02:11;;;;;;;15.47;11.50;;;;;;;;;;4974473;28;20227;-77
2021/03/23 00:04:37;;;;;;;16.70;11.40;;;;;;;;;;4974044;28;20471;-77
2021/03/23 00:07:03;;;;;;;16.92;12.23;;;;;;;;;;4972738;28;20206;-76
2021/03/23 00:09:29;;;;;;;21.67;14.00;;;;;;;;;;4974170;28;20173;-76
2021/03/23 00:11:57;;;;;;;21.27;15.43;;;;;;;;;;4974324;28;20615;-76
2021/03/23 00:14:23;;;;;;;19.98;13.90;;;;;;;;;;4974079;28;20419;-78
2021/03/23 00:16:49;;;;;;;23.48;15.90;;;;;;;;;;4973796;28;20196;-78
2021/03/23 00:19:16;;;;;;;22.00;14.98;;;;;;;;;;4973026;28;20188;-77
2021/03/23 00:21:42;;;;;;;21.55;14.88;;;;;;;;;;4974169;28;20540;-77
2021/03/23 00:24:08;;;;;;;19.45;14.40;;;;;;;;;;4974172;28;20613;-76
2021/03/23 00:26:34;;;;;;;19.15;14.52;;;;;;;;;;4972399;28;20238;-76
2021/03/23 00:29:00;;;;;;;16.33;12.93;;;;;;;;;;4973852;28;20179;-77
2021/03/23 00:31:31;;;;;;;18.92;12.85;;;;;;;;;;4972128;28;20191;-77
2021/03/23 00:34:02;;;;;;;17.25;13.13;;;;;;;;;;4972704;28;20218;-77
2021/03/23 00:36:30;;;;;;;19.50;13.00;;;;;;;;;;4973438;28;20222;-77
2021/03/23 00:38:56;;;;;;;17.42;13.50;;;;;;;;;;4973974;28;20259;-77
2021/03/23 00:41:23;;;;;;;20.90;14.48;;;;;;;;;;4973896;28;20184;-77
2021/03/23 00:43:49;;;;;;;21.58;14.70;;;;;;;;;;4973751;28;20226;-76
2021/03/23 00:46:15;;;;;;;22.45;15.05;;;;;;;;;;4973524;28;20517;-76
2021/03/23 00:48:41;;;;;;;19.15;13.70;;;;;;;;;;4973985;28;20199;-76
2021/03/23 00:51:07;;;;;;;17.95;12.98;;;;;;;;;;4973840;28;20543;-77
2021/03/23 00:53:33;;;;;;;21.47;14.73;;;;;;;;;;4972592;28;20297;-77
2021/03/23 00:56:01;;;;;;;20.30;14.50;;;;;;;;;;4973546;28;20774;-76
2021/03/23 00:58:27;;;;;;;22.77;15.20;;;;;;;;;;4972585;28;20506;-76
2021/03/23 01:00:53;;;;;;;26.17;17.02;;;;;;;;;;4973531;28;20257;-77
2021/03/23 01:03:19;;;;;;;17.90;13.43;;;;;;;;;;4973744;28;20744;-78
2021/03/23 01:05:47;;;;;;;22.05;15.15;;;;;;;;;;4973183;28;20431;-77
2021/03/23 01:08:13;;;;;;;24.33;15.82;;;;;;;;;;4973909;28;20176;-77
2021/03/23 01:10:39;;;;;;;24.33;15.43;;;;;;;;;;4973661;28;20653;-77
2021/03/23 01:13:05;;;;;;;22.30;16.07;;;;;;;;;;4973650;28;20215;-77
2021/03/23 01:15:32;;;;;;;24.98;16.88;;;;;;;;;;4973188;28;20777;-80
2021/03/23 01:17:59;;;;;;;25.92;15.65;;;;;;;;;;4973520;28;20183;-78
2021/03/23 01:20:26;;;;;;;25.00;17.15;;;;;;;;;;4973592;28;20234;-77
2021/03/23 01:22:52;;;;;;;32.72;16.13;;;;;;;;;;4973640;28;20188;-75
2021/03/23 01:25:18;;;;;;;22.35;14.98;;;;;;;;;;4973079;28;20624;-76
2021/03/23 01:27:48;;;;;;;36.05;16.35;;;;;;;;;;4973413;28;20176;-78
2021/03/23 01:30:14;;;;;;;25.58;17.40;;;;;;;;;;4973491;28;20611;-76
2021/03/23 01:32:40;;;;;;;28.88;16.52;;;;;;;;;;4973282;28;20196;-76
2021/03/23 01:35:06;;;;;;;31.73;18.23;;;;;;;;;;4972895;28;20731;-77
2021/03/23 01:37:32;;;;;;;23.58;16.08;;;;;;;;;;4973475;28;20460;-77
2021/03/23 01:39:58;;;;;;;27.65;16.42;;;;;;;;;;4973213;28;20708;-77
2021/03/23 01:42:37;;;;;;;24.00;16.50;;;;;;;;;;4957288;28;20183;-77
2021/03/23 01:45:15;;;;;;;31.30;18.85;;;;;;;;;;4976518;28;20485;-77
2021/03/23 01:47:41;;;;;;;27.95;16.95;;;;;;;;;;4976722;28;20186;-77
2021/03/23 01:50:07;;;;;;;27.53;17.63;;;;;;;;;;4976716;28;20255;-77
2021/03/23 01:52:33;;;;;;;30.27;18.40;;;;;;;;;;4976673;28;20551;-77
2021/03/23 01:55:04;;;;;;;23.17;16.92;;;;;;;;;;4976294;28;20333;-76
2021/03/23 01:57:31;;;;;;;27.38;17.45;;;;;;;;;;4976870;28;20180;-77
2021/03/23 01:59:58;;;;;;;28.65;17.73;;;;;;;;;;4976440;28;20180;-77
2021/03/23 02:02:25;;;;;;;27.95;17.05;;;;;;;;;;4976593;28;20207;-78
2021/03/23 02:04:51;;;;;;;36.42;19.80;;;;;;;;;;4974973;28;20526;-77
2021/03/23 02:07:17;;;;;;;24.60;16.48;;;;;;;;;;4976491;28;20184;-77
2021/03/23 02:09:43;;;;;;;30.70;17.25;;;;;;;;;;4976440;28;20243;-77
2021/03/23 02:12:11;;;;;;;27.42;18.58;;;;;;;;;;4975124;28;20180;-77
2021/03/23 02:14:42;;;;;;;31.58;17.55;;;;;;;;;;4975891;28;20177;-78
2021/03/23 02:17:17;;;;;;;25.95;17.50;;;;;;;;;;4976348;28;20644;-77
2021/03/23 02:19:43;;;;;;;33.47;19.58;;;;;;;;;;4976183;28;20223;-77
2021/03/23 02:22:13;;;;;;;32.95;18.25;;;;;;;;;;4976163;28;20172;-76
2021/03/23 02:24:39;;;;;;;34.30;19.27;;;;;;;;;;4975805;28;20590;-78
2021/03/23 02:27:05;;;;;;;31.87;20.67;;;;;;;;;;4976002;28;20291;-77
2021/03/23 02:29:31;;;;;;;32.30;19.73;;;;;;;;;;4976073;28;20511;-77
2021/03/23 02:31:57;;;;;;;37.15;20.80;;;;;;;;;;4975898;28;20180;-78
2021/03/23 02:34:24;;;;;;;32.50;19.73;;;;;;;;;;4974482;28;20232;-77
2021/03/23 02:36:51;;;;;;;30.80;20.17;;;;;;;;;;4975631;28;20462;-77
2021/03/23 02:39:19;;;;;;;37.65;20.02;;;;;;;;;;4975889;28;20197;-77
2021/03/23 02:41:45;;;;;;;30.55;19.75;;;;;;;;;;4975863;28;20569;-78
2021/03/23 02:44:11;;;;;;;31.30;20.30;;;;;;;;;;4975525;28;20263;-77
2021/03/23 02:46:38;;;;;;;37.13;19.13;;;;;;;;;;4975391;28;20205;-78
2021/03/23 02:49:05;;;;;;;34.50;21.25;;;;;;;;;;4975676;28;20581;-78
2021/03/23 02:51:31;;;;;;;31.83;19.13;;;;;;;;;;4975745;28;20183;-78
2021/03/23 02:53:57;;;;;;;30.67;19.98;;;;;;;;;;4975435;28;20670;-77
2021/03/23 02:56:23;;;;;;;34.40;20.77;;;;;;;;;;4975201;28;20323;-78
2021/03/23 02:58:49;;;;;;;36.85;20.40;;;;;;;;;;4974203;28;20982;-77
2021/03/23 03:01:16;;;;;;;35.70;21.85;;;;;;;;;;4975553;28;20253;-77
2021/03/23 03:03:42;;;;;;;31.10;20.30;;;;;;;;;;4974226;28;20274;-76
2021/03/23 03:06:08;;;;;;;41.85;20.85;;;;;;;;;;4973964;28;20216;-76
2021/03/23 03:08:35;;;;;;;36.60;21.50;;;;;;;;;;4975265;28;20191;-77
2021/03/23 03:11:01;;;;;;;32.53;21.35;;;;;;;;;;4975438;28;20180;-76
2021/03/23 03:13:27;;;;;;;35.25;20.65;;;;;;;;;;4975226;28;20327;-76
2021/03/23 03:15:54;;;;;;;35.75;21.05;;;;;;;;;;4974676;28;20207;-78
2021/03/23 03:18:21;;;;;;;36.75;21.13;;;;;;;;;;4975087;28;20265;-76
2021/03/23 03:20:47;;;;;;;39.28;21.65;;;;;;;;;;4975151;28;20468;-76
2021/03/23 03:23:14;;;;;;;34.78;19.98;;;;;;;;;;4975091;28;20257;-76
2021/03/23 03:25:40;;;;;;;36.33;21.08;;;;;;;;;;4974571;28;20574;-78
2021/03/23 03:28:07;;;;;;;34.28;22.67;;;;;;;;;;4975001;28;20187;-76
2021/03/23 03:30:34;;;;;;;44.83;22.50;;;;;;;;;;4974635;28;20237;-78
2021/03/23 03:33:00;;;;;;;34.17;20.67;;;;;;;;;;4974873;28;20298;-78
2021/03/23 03:35:27;;;;;;;36.03;22.83;;;;;;;;;;4974323;28;20214;-76
2021/03/23 03:37:53;;;;;;;33.88;21.40;;;;;;;;;;4974823;28;20170;-78
2021/03/23 03:40:23;;;;;;;35.55;21.13;;;;;;;;;;4974836;28;20179;-76
2021/03/23 03:42:49;;;;;;;35.63;22.25;;;;;;;;;;4974518;28;20540;-78
2021/03/23 03:45:15;;;;;;;33.40;21.47;;;;;;;;;;4974412;28;20207;-78
2021/03/23 03:47:41;;;;;;;31.73;21.17;;;;;;;;;;4974447;28;20417;-77
2021/03/23 03:50:08;;;;;;;35.35;22.38;;;;;;;;;;4974541;28;20184;-78
2021/03/23 03:52:34;;;;;;;36.15;21.65;;;;;;;;;;4974433;28;20206;-77
2021/03/23 03:55:00;;;;;;;41.28;22.67;;;;;;;;;;4974060;28;20536;-76
2021/03/23 03:57:26;;;;;;;36.42;23.50;;;;;;;;;;4974547;28;20173;-78
2021/03/23 03:59:53;;;;;;;36.20;22.50;;;;;;;;;;4974568;28;20279;-77
2021/03/23 04:02:19;;;;;;;32.30;22.42;;;;;;;;;;4974381;28;20172;-78
2021/03/23 04:04:46;;;;;;;44.63;23.65;;;;;;;;;;4973331;28;20658;-77
2021/03/23 04:07:12;;;;;;;35.65;22.67;;;;;;;;;;4974421;28;20222;-78
2021/03/23 04:09:39;;;;;;;30.83;20.17;;;;;;;;;;4974419;28;20182;-77
2021/03/23 04:12:06;;;;;;;31.00;21.27;;;;;;;;;;4974302;28;20645;-76
2021/03/23 04:14:32;;;;;;;34.70;20.90;;;;;;;;;;4974067;28;20184;-76
2021/03/23 04:16:58;;;;;;;33.88;20.85;;;;;;;;;;4974096;28;20199;-77
2021/03/23 04:19:24;;;;;;;36.63;20.60;;;;;;;;;;4973976;28;20579;-77
2021/03/23 04:21:50;;;;;;;33.13;21.85;;;;;;;;;;4974341;28;20407;-77
2021/03/23 04:24:16;;;;;;;34.43;21.03;;;;;;;;;;4972800;28;20645;-78
2021/03/23 04:26:42;;;;;;;32.27;21.80;;;;;;;;;;4973639;28;20455;-77
2021/03/23 04:29:08;;;;;;;36.87;21.20;;;;;;;;;;4973978;28;20425;-77
2021/03/23 04:31:36;;;;;;;33.10;19.08;;;;;;;;;;4973047;28;20848;-77
2021/03/23 04:34:03;;;;;;;38.80;23.08;;;;;;;;;;4973934;28;20307;-78
2021/03/23 04:36:29;;;;;;;30.83;20.45;;;;;;;;;;4973228;28;20679;-77
2021/03/23 04:38:55;;;;;;;34.67;20.90;;;;;;;;;;4974045;28;20174;-76
2021/03/23 04:41:21;;;;;;;37.88;21.02;;;;;;;;;;4973997;28;20258;-76
2021/03/23 04:43:48;;;;;;;35.90;20.20;;;;;;;;;;4973899;28;20601;-77
2021/03/23 04:46:15;;;;;;;31.80;21.15;;;;;;;;;;4973572;28;20274;-77
2021/03/23 04:48:41;;;;;;;31.73;20.30;;;;;;;;;;4974036;28;20186;-77
2021/03/23 04:51:08;;;;;;;33.30;20.15;;;;;;;;;;4972354;28;20184;-77
2021/03/23 04:53:37;;;;;;;35.53;20.77;;;;;;;;;;4973931;28;20216;-79
2021/03/23 04:56:03;;;;;;;37.22;21.13;;;;;;;;;;4973581;28;20306;-78
2021/03/23 04:58:32;;;;;;;33.55;19.88;;;;;;;;;;4973828;28;20258;-78
2021/03/23 05:00:59;;;;;;;30.23;19.67;;;;;;;;;;4974152;28;20176;-77
2021/03/23 05:03:26;;;;;;;33.75;21.80;;;;;;;;;;4972532;28;20212;-80
2021/03/23 05:05:53;;;;;;;35.55;21.17;;;;;;;;;;4972034;28;20563;-78
2021/03/23 05:08:20;;;;;;;32.78;20.65;;;;;;;;;;4973640;28;20191;-76
2021/03/23 05:10:46;;;;;;;39.75;22.60;;;;;;;;;;4973770;28;20204;-77
2021/03/23 05:13:12;;;;;;;35.20;21.23;;;;;;;;;;4973445;28;20303;-79
2021/03/23 05:15:38;;;;;;;32.20;20.52;;;;;;;;;;4973297;28;20800;-78
2021/03/23 05:18:04;;;;;;;37.08;21.50;;;;;;;;;;4975591;28;20191;-77
2021/03/23 05:20:30;;;;;;;31.55;22.10;;;;;;;;;;4976207;28;20183;-77
2021/03/23 05:22:56;;;;;;;32.95;19.85;;;;;;;;;;4959898;28;20187;-79
2021/03/23 05:25:22;;;;;;;34.05;21.15;;;;;;;;;;4976746;28;20203;-77
2021/03/23 05:27:48;;;;;;;34.70;20.67;;;;;;;;;;4977416;28;20238;-77
2021/03/23 05:30:15;;;;;;;29.42;19.20;;;;;;;;;;4975891;28;20770;-77
2021/03/23 05:32:41;;;;;;;32.40;19.45;;;;;;;;;;4977019;28;20594;-78
2021/03/23 05:35:08;;;;;;;32.43;22.27;;;;;;;;;;4976435;28;20196;-77
2021/03/23 05:37:34;;;;;;;32.22;22.48;;;;;;;;;;4975624;28;20494;-78
2021/03/23 05:39:59;;;;;;;34.43;22.67;;;;;;;;;;4976898;28;20186;-78
2021/03/23 05:42:32;;;;;;;34.27;22.50;;;;;;;;;;4977033;28;20844;-78
2021/03/23 05:45:04;;;;;;;37.20;23.10;;;;;;;;;;4976522;28;20406;-77
2021/03/23 05:47:35;;;;;;;33.88;22.70;;;;;;;;;;4976823;28;20604;-78
2021/03/23 05:50:19;;;;;;;38.90;21.50;;;;;;;;;;4976886;28;20180;-77
2021/03/23 05:52:50;;;;;;;39.28;22.63;;;;;;;;;;4976707;28;20210;-78
2021/03/23 05:55:28;;;;;;;31.73;20.30;;;;;;;;;;4976413;28;20197;-77
2021/03/23 05:57:55;;;;;;;40.13;22.90;;;;;;;;;;4976903;28;20183;-77
2021/03/23 06:00:25;;;;;;;35.47;21.42;;;;;;;;;;4976349;28;20184;-77
2021/03/23 06:02:58;;;;;;;35.67;21.85;;;;;;;;;;4976834;28;20246;-79
2021/03/23 06:05:27;;;;;;;34.90;21.92;;;;;;;;;;4976170;28;20546;-76
2021/03/23 06:07:53;;;;;;;37.83;23.30;;;;;;;;;;4975254;28;20271;-78
2021/03/23 06:10:21;;;;;;;30.33;21.05;;;;;;;;;;4975381;28;20253;-77
2021/03/23 06:13:06;;;;;;;33.20;22.17;;;;;;;;;;4976566;28;20227;-77
2021/03/23 06:15:37;;;;;;;34.55;19.77;;;;;;;;;;4975941;28;20196;-77
2021/03/23 06:18:11;;;;;;;30.23;21.50;;;;;;;;;;4976336;28;20179;-78
2021/03/23 06:20:54;;;;;;;35.38;20.35;;;;;;;;;;4976408;28;20222;-78
2021/03/23 06:23:38;;;;;;;31.42;21.30;;;;;;;;;;4976291;28;20179;-78
2021/03/23 06:26:17;;;;;;;31.63;22.38;;;;;;;;;;4975857;28;20293;-77
2021/03/23 06:28:58;;;;;;;39.17;22.75;;;;;;;;;;4974253;28;20666;-78
2021/03/23 06:31:43;;;;;;;33.03;22.67;;;;;;;;;;4976040;28;20533;-78
2021/03/23 06:34:16;;;;;;;39.53;22.92;;;;;;;;;;4974655;28;20217;-78
2021/03/23 06:36:43;;;;;;;32.45;21.00;;;;;;;;;;4975248;28;20550;-77
2021/03/23 06:39:09;;;;;;;33.92;22.00;;;;;;;;;;4974780;28;20213;-76
2021/03/23 06:41:36;;;;;;;40.17;21.83;;;;;;;;;;4975730;28;20202;-75
2021/03/23 06:44:14;;;;;;;33.67;21.40;;;;;;;;;;4975657;28;20197;-74
2021/03/23 06:46:45;;;;;;;33.00;21.15;;;;;;;;;;4975389;28;20285;-75
2021/03/23 06:49:13;;;;;;;34.38;20.90;;;;;;;;;;4975580;28;20672;-77
2021/03/23 06:51:52;;;;;;;40.13;21.30;;;;;;;;;;4975673;28;20175;-78
2021/03/23 06:54:20;;;;;;;39.88;23.85;;;;;;;;;;4971556;28;20277;-77
2021/03/23 06:56:46;;;;;;;33.58;22.88;;;;;;;;;;4973604;28;20771;-77
2021/03/23 06:59:17;;;;;;;32.20;20.88;;;;;;;;;;4973636;28;20652;-78
2021/03/23 07:01:45;;;;;;;35.80;23.02;;;;;;;;;;4973369;28;20192;-78
2021/03/23 07:04:17;;;;;;;35.92;22.70;;;;;;;;;;4975234;28;20180;-77
2021/03/23 07:06:43;;;;;;;37.45;22.25;;;;;;;;;;4974988;28;20195;-77
2021/03/23 07:09:22;;;;;;;34.45;21.60;;;;;;;;;;4975302;28;20641;-77
2021/03/23 07:11:53;;;;;;;35.55;21.65;;;;;;;;;;4975100;28;20183;-77
2021/03/23 07:14:26;;;;;;;33.88;21.90;;;;;;;;;;4973771;28;20358;-77
2021/03/23 07:17:01;;;;;;;33.10;20.90;;;;;;;;;;4974961;28;20565;-78
2021/03/23 07:19:27;;;;;;;34.50;23.90;;;;;;;;;;4975241;28;20230;-78
2021/03/23 07:22:00;;;;;;;39.58;23.15;;;;;;;;;;4973735;28;20187;-78
2021/03/23 07:24:31;;;;;;;34.15;21.38;;;;;;;;;;4974924;28;20179;-78
2021/03/23 07:26:57;;;;;;;31.98;22.42;;;;;;;;;;4973581;28;20213;-77
2021/03/23 07:29:28;;;;;;;34.10;20.92;;;;;;;;;;4973536;28;20183;-78
2021/03/23 07:32:15;;;;;;;29.25;21.67;;;;;;;;;;4974884;28;20191;-78
2021/03/23 07:34:51;;;;;;;30.83;22.55;;;;;;;;;;4974562;28;20196;-78
2021/03/23 07:37:19;;;;;;;33.25;20.95;;;;;;;;;;4974647;28;20277;-77
2021/03/23 07:39:49;;;;;;;31.05;21.63;;;;;;;;;;4973920;28;20196;-77
2021/03/23 07:42:26;;;;;;;34.83;22.00;;;;;;;;;;4974632;28;20235;-78
2021/03/23 07:44:58;;;;;;;33.28;19.77;;;;;;;;;;4974273;28;20175;-77
2021/03/23 07:47:33;;;;;;;30.83;19.98;;;;;;;;;;4974592;28;20377;-78
2021/03/23 07:50:05;;;;;;;29.73;20.60;;;;;;;;;;4974557;28;20601;-78
2021/03/23 07:52:46;;;;;;;35.50;21.25;;;;;;;;;;4974559;28;20282;-77
2021/03/23 07:55:18;;;;;;;30.13;20.45;;;;;;;;;;4974149;28;20192;-77
2021/03/23 07:57:51;;;;;;;32.65;18.42;;;;;;;;;;4974437;28;20610;-76
2021/03/23 08:00:17;;;;;;;29.05;18.48;;;;;;;;;;4974175;28;20526;-77
2021/03/23 08:02:49;;;;;;;32.72;20.38;;;;;;;;;;4974236;28;20239;-78
2021/03/23 08:05:22;;;;;;;35.60;19.00;;;;;;;;;;4973752;28;20564;-77
2021/03/23 08:07:48;;;;;;;28.92;18.00;;;;;;;;;;4974271;28;20267;-76
2021/03/23 08:10:14;;;;;;;26.87;17.73;;;;;;;;;;4972914;28;20215;-76
2021/03/23 08:12:54;;;;;;;27.23;19.87;;;;;;;;;;4974100;28;20475;-78
2021/03/23 08:15:38;;;;;;;24.23;19.08;;;;;;;;;;4974974;28;20428;-78
2021/03/23 08:18:07;;;;;;;29.50;18.58;;;;;;;;;;4974501;28;20617;-78
2021/03/23 08:20:43;;;;;;;31.67;19.35;;;;;;;;;;4974204;28;20181;-77
2021/03/23 08:23:16;;;;;;;30.00;18.67;;;;;;;;;;4974433;28;20179;-78
2021/03/23 08:25:48;;;;;;;22.58;16.15;;;;;;;;;;4973721;28;20254;-79
2021/03/23 08:28:14;;;;;;;21.20;15.70;;;;;;;;;;4974125;28;20802;-77
2021/03/23 08:30:58;;;;;;;24.43;17.00;;;;;;;;;;4973752;28;20208;-77
2021/03/23 08:33:32;;;;;;;24.55;16.35;;;;;;;;;;4973883;28;20475;-76
2021/03/23 08:36:05;;;;;;;25.60;16.67;;;;;;;;;;4973499;28;20302;-78
2021/03/23 08:38:41;;;;;;;24.15;15.90;;;;;;;;;;4973852;28;20608;-77
2021/03/23 08:41:16;;;;;;;22.60;15.85;;;;;;;;;;4973991;28;20214;-78
2021/03/23 08:43:43;;;;;;;26.95;15.93;;;;;;;;;;4974021;28;20180;-77
2021/03/23 08:46:21;;;;;;;29.88;14.95;;;;;;;;;;4973389;28;20196;-79
2021/03/23 08:48:50;;;;;;;24.45;15.80;;;;;;;;;;4973691;28;20188;-78
2021/03/23 08:51:19;;;;;;;30.40;15.88;;;;;;;;;;4974903;28;20647;-80
2021/03/23 08:53:46;;;;;;;24.98;13.98;;;;;;;;;;4977690;28;20222;-78
2021/03/23 08:56:12;;;;;;;25.42;15.65;;;;;;;;;;4977269;28;20198;-79
2021/03/23 08:58:51;;;;;;;22.90;15.45;;;;;;;;;;4977712;28;20645;-77
2021/03/23 09:01:28;;;;;;;24.92;14.40;;;;;;;;;;4977630;28;20228;-79
2021/03/23 09:04:16;;;;;;;24.35;16.42;;;;;;;;;;4976283;28;20194;-78
2021/03/23 09:06:50;;;;;;;25.70;15.85;;;;;;;;;;4947805;28;20497;-79
2021/03/23 09:09:29;;;;;;;22.60;15.13;;;;;;;;;;4976260;28;20246;-78
2021/03/23 09:12:15;;;;;;;32.40;15.73;;;;;;;;;;4976123;28;20234;-77
2021/03/23 09:14:59;;;;;;;27.85;16.13;;;;;;;;;;4977035;28;20266;-77
2021/03/23 09:17:36;;;;;;;32.38;15.23;;;;;;;;;;4977353;28;20176;-78
2021/03/23 09:20:22;;;;;;;27.77;16.15;;;;;;;;;;4975911;28;20189;-77
2021/03/23 09:22:48;;;;;;;25.42;16.30;;;;;;;;;;4977073;28;20183;-76
2021/03/23 09:25:23;;;;;;;25.23;14.93;;;;;;;;;;4976723;28;20206;-76
2021/03/23 09:27:49;;;;;;;28.45;15.45;;;;;;;;;;4977130;28;20175;-76
2021/03/23 09:30:54;;;;;;;30.40;16.20;;;;;;;;;;4977128;28;20715;-76
2021/03/23 09:33:23;;;;;;;29.83;16.50;;;;;;;;;;4917333;29;20588;-78
2021/03/23 09:38:36;;;;;;;25.15;16.40;;;;;;;;;;4953789;28;20199;-79
2021/03/23 09:41:06;;;;;;;26.63;15.80;;;;;;;;;;4976823;28;20202;-76
2021/03/23 09:43:35;;;;;;;24.70;15.20;;;;;;;;;;4977020;28;20321;-77
2021/03/23 09:46:04;;;;;;;23.48;15.25;;;;;;;;;;4976591;28;20215;-77
2021/03/23 09:48:32;;;;;;;20.92;13.80;;;;;;;;;;4977108;28;20187;-77
2021/03/23 09:51:04;;;;;;;24.70;14.65;;;;;;;;;;4976740;28;20186;-76
2021/03/23 09:53:33;;;;;;;20.67;15.15;;;;;;;;;;4975465;28;20212;-77
2021/03/23 09:56:11;;;;;;;20.40;14.38;;;;;;;;;;4976257;28;20198;-77
2021/03/23 09:58:38;;;;;;;27.90;15.80;;;;;;;;;;4975115;28;20654;-77
2021/03/23 10:01:30;;;;;;;24.05;14.98;;;;;;;;;;4976395;28;20670;-77
2021/03/23 10:03:58;;;;;;;21.52;14.30;;;;;;;;;;4973007;28;20569;-76
2021/03/23 10:06:28;;;;;;;31.88;14.63;;;;;;;;;;4974784;28;20688;-77
2021/03/23 10:09:06;;;;;;;19.13;13.07;;;;;;;;;;4976349;28;20179;-76
2021/03/23 10:11:43;;;;;;;26.92;15.52;;;;;;;;;;4976349;28;20581;-77
2021/03/23 10:14:10;;;;;;;20.25;13.50;;;;;;;;;;4976401;28;20218;-78
2021/03/23 10:16:37;;;;;;;22.77;13.03;;;;;;;;;;4975895;28;20187;-78
2021/03/23 10:19:11;;;;;;;18.77;12.97;;;;;;;;;;4976218;28;20404;-77
2021/03/23 10:21:38;;;;;;;20.57;14.40;;;;;;;;;;4975033;28;20411;-78
2021/03/23 10:24:14;;;;;;;22.90;11.93;;;;;;;;;;4976272;28;20434;-78
2021/03/23 10:26:46;;;;;;;23.10;11.87;;;;;;;;;;4975812;28;20947;-77
2021/03/23 10:29:12;;;;;;;20.90;12.63;;;;;;;;;;4976030;28;20499;-77
2021/03/23 10:31:40;;;;;;;22.77;12.27;;;;;;;;;;4975731;28;20499;-77
2021/03/23 10:34:11;;;;;;;17.10;11.60;;;;;;;;;;4975812;28;20573;-77
2021/03/23 10:36:45;;;;;;;16.90;13.23;;;;;;;;;;4975153;28;20463;-77
2021/03/23 10:39:29;;;;;;;21.20;12.47;;;;;;;;;;4975382;28;20402;-77
2021/03/23 10:41:55;;;;;;;17.03;10.87;;;;;;;;;;4975773;28;20418;-76
2021/03/23 10:44:24;;;;;;;23.00;11.53;;;;;;;;;;4975728;28;20419;-77
2021/03/23 10:46:50;;;;;;;16.43;12.70;;;;;;;;;;4975462;28;20432;-76
2021/03/23 10:49:26;;;;;;;16.63;11.20;;;;;;;;;;4975798;28;20419;-79
2021/03/23 10:52:12;;;;;;;19.37;12.87;;;;;;;;;;4975776;28;20781;-79
2021/03/23 10:54:38;;;;;;;19.57;15.00;;;;;;;;;;4974885;28;20499;-77
2021/03/23 10:57:23;;;;;;;22.30;14.00;;;;;;;;;;4975501;28;20432;-76
2021/03/23 10:59:49;;;;;;;23.53;15.30;;;;;;;;;;4974817;28;20502;-77
2021/03/23 11:02:16;;;;;;;19.70;11.20;;;;;;;;;;4973486;28;20434;-76
2021/03/23 11:04:57;;;;;;;21.77;12.97;;;;;;;;;;4975032;28;20412;-76
2021/03/23 11:07:24;;;;;;;23.60;12.00;;;;;;;;;;4975305;28;20419;-77
2021/03/23 11:09:51;;;;;;;19.23;12.23;;;;;;;;;;4973963;28;20462;-77
2021/03/23 11:12:17;;;;;;;23.70;11.60;;;;;;;;;;4975261;28;20411;-77
2021/03/23 11:14:43;;;;;;;20.20;12.90;;;;;;;;;;4974498;28;20614;-77
2021/03/23 11:17:10;;;;;;;21.33;13.20;;;;;;;;;;4975114;28;20412;-77
2021/03/23 11:19:40;;;;;;;17.83;13.43;;;;;;;;;;4975028;28;20408;-77
2021/03/23 11:22:10;;;;;;;24.30;14.07;;;;;;;;;;4975232;28;20400;-77
2021/03/23 11:24:36;;;;;;;21.03;13.60;;;;;;;;;;4974760;28;20500;-77
2021/03/23 11:27:02;;;;;;;19.83;13.40;;;;;;;;;;4974848;28;20417;-77
2021/03/23 11:29:31;;;;;;;26.30;15.10;;;;;;;;;;4974801;28;20394;-77
2021/03/23 11:31:57;;;;;;;21.20;13.77;;;;;;;;;;4974802;28;20416;-77
2021/03/23 11:34:23;;;;;;;26.37;14.77;;;;;;;;;;4974813;28;20975;-77
2021/03/23 11:36:51;;;;;;;22.83;14.60;;;;;;;;;;4974273;28;20456;-76
2021/03/23 11:39:17;;;;;;;23.70;14.10;;;;;;;;;;4974835;28;20418;-77
2021/03/23 11:41:46;;;;;;;23.98;14.95;;;;;;;;;;4974646;28;20176;-77
2021/03/23 11:44:12;;;;;;;20.52;13.88;;;;;;;;;;4974505;28;20178;-77
2021/03/23 11:46:41;;;;;;;26.03;15.10;;;;;;;;;;4974109;28;20727;-77
2021/03/23 11:49:23;;;;;;;18.95;13.95;;;;;;;;;;4974793;28;20412;-77
2021/03/23 11:51:49;;;;;;;20.33;14.10;;;;;;;;;;4974671;28;20188;-77
2021/03/23 11:54:15;;;;;;;27.97;15.50;;;;;;;;;;4972980;28;21024;-77
2021/03/23 11:56:41;;;;;;;22.38;14.63;;;;;;;;;;4973960;28;20506;-76
2021/03/23 11:59:08;;;;;;;18.27;13.88;;;;;;;;;;4973359;28;20266;-77
2021/03/23 12:01:34;;;;;;;20.10;14.20;;;;;;;;;;4973282;28;20287;-77
2021/03/23 12:04:00;;;;;;;21.27;14.63;;;;;;;;;;4974342;28;20423;-77
2021/03/23 12:06:34;;;;;;;22.88;13.75;;;;;;;;;;4974070;28;20585;-76
2021/03/23 12:09:01;;;;;;;24.40;14.43;;;;;;;;;;4974370;28;20173;-77
2021/03/23 12:11:30;;;;;;;18.42;14.75;;;;;;;;;;4974040;28;20656;-76
2021/03/23 12:14:06;;;;;;;20.85;14.43;;;;;;;;;;4975601;28;20664;-77
2021/03/23 12:16:36;;;;;;;20.15;14.90;;;;;;;;;;4973880;28;20202;-77
2021/03/23 12:19:05;;;;;;;21.27;13.88;;;;;;;;;;4974200;28;20176;-77
2021/03/23 12:21:31;;;;;;;24.95;14.52;;;;;;;;;;4972941;28;20688;-76
2021/03/23 12:23:57;;;;;;;23.38;14.27;;;;;;;;;;4974028;28;20558;-78
2021/03/23 12:26:23;;;;;;;21.73;15.67;;;;;;;;;;4972772;28;20283;-77
2021/03/23 12:28:49;;;;;;;23.58;15.48;;;;;;;;;;4974051;28;20455;-76
2021/03/23 12:31:17;;;;;;;21.93;13.57;;;;;;;;;;4972222;28;20188;-77
2021/03/23 12:33:43;;;;;;;19.47;13.73;;;;;;;;;;4973583;28;20499;-77
2021/03/23 12:36:11;;;;;;;18.30;13.93;;;;;;;;;;4971919;28;20451;-77
2021/03/23 12:38:39;;;;;;;16.47;12.47;;;;;;;;;;4973641;28;20411;-77
2021/03/23 12:41:05;;;;;;;21.57;14.33;;;;;;;;;;4973486;28;20403;-77
2021/03/23 12:43:31;;;;;;;20.40;14.30;;;;;;;;;;4973794;28;20416;-77
2021/03/23 12:45:59;;;;;;;25.67;15.30;;;;;;;;;;4973461;28;20494;-77
2021/03/23 12:48:25;;;;;;;20.35;13.90;;;;;;;;;;4973691;28;20176;-77
2021/03/23 12:50:52;;;;;;;19.23;13.68;;;;;;;;;;4973278;28;20653;-77
2021/03/23 12:53:19;;;;;;;16.90;12.38;;;;;;;;;;4971972;28;20669;-77
2021/03/23 12:55:49;;;;;;;19.30;14.13;;;;;;;;;;4972956;28;20195;-77
2021/03/23 12:58:16;;;;;;;20.53;13.20;;;;;;;;;;4970560;28;20191;-77
2021/03/23 13:00:42;;;;;;;18.27;12.45;;;;;;;;;;4973204;28;20418;-77
2021/03/23 13:03:18;;;;;;;21.98;12.32;;;;;;;;;;4973034;28;20187;-77
2021/03/23 13:05:45;;;;;;;18.30;13.83;;;;;;;;;;4973101;28;20199;-77
2021/03/23 13:08:34;;;;;;;25.10;13.13;;;;;;;;;;4972566;28;20411;-77
2021/03/23 13:11:02;;;;;;;18.23;13.32;;;;;;;;;;4972738;28;20431;-77
2021/03/23 13:13:32;;;;;;;15.52;13.30;;;;;;;;;;4973346;28;20208;-77
2021/03/23 13:15:58;;;;;;;18.73;13.10;;;;;;;;;;4972844;28;20198;-77
2021/03/23 13:18:26;;;;;;;22.23;14.03;;;;;;;;;;4973550;28;20761;-77
2021/03/23 13:20:53;;;;;;;24.73;13.40;;;;;;;;;;4973629;28;20554;-78
2021/03/23 13:23:22;;;;;;;22.60;14.33;;;;;;;;;;4973451;28;20426;-77
2021/03/23 13:26:01;;;;;;;18.92;13.60;;;;;;;;;;4973091;28;20445;-77
2021/03/23 13:28:48;;;;;;;20.37;12.97;;;;;;;;;;4973370;28;20203;-78
2021/03/23 13:31:14;;;;;;;20.70;13.40;;;;;;;;;;4973486;28;20418;-76
2021/03/23 13:33:41;;;;;;;21.80;14.90;;;;;;;;;;4973239;28;20466;-77
2021/03/23 13:36:08;;;;;;;21.40;14.82;;;;;;;;;;4972986;28;20794;-78
2021/03/23 13:38:38;;;;;;;17.40;12.83;;;;;;;;;;4974614;28;20178;-77
2021/03/23 13:41:04;;;;;;;21.60;14.10;;;;;;;;;;4976911;28;20408;-77
2021/03/23 13:43:30;;;;;;;15.93;13.47;;;;;;;;;;4976937;28;20416;-77
2021/03/23 13:46:00;;;;;;;17.10;13.57;;;;;;;;;;4976529;28;20442;-77
2021/03/23 13:48:27;;;;;;;20.67;13.20;;;;;;;;;;4976843;28;20412;-77
2021/03/23 13:50:54;;;;;;;19.00;14.93;;;;;;;;;;4976719;28;20780;-76
2021/03/23 13:53:23;;;;;;;21.20;15.37;;;;;;;;;;4975366;28;20462;-77
2021/03/23 13:55:50;;;;;;;23.10;15.20;;;;;;;;;;4976341;28;20806;-78
2021/03/23 13:58:16;;;;;;;15.40;12.30;;;;;;;;;;4976775;28;20466;-77
2021/03/23 14:00:44;;;;;;;20.67;15.20;;;;;;;;;;4976576;28;20445;-77
2021/03/23 14:03:10;;;;;;;20.33;13.93;;;;;;;;;;4976580;28;20407;-78
2021/03/23 14:05:42;;;;;;;21.87;14.27;;;;;;;;;;5034598;22;20502;-77
2021/03/23 14:14:16;;;;;;;16.87;13.17;;;;;;;;;;5054842;28;20398;-77
2021/03/23 14:16:42;;;;;;;18.40;14.23;;;;;;;;;;5036707;28;20513;-76
2021/03/23 14:19:14;;;;;;;22.10;13.53;;;;;;;;;;5054845;28;20424;-77
2021/03/23 14:21:40;;;;;;;18.10;13.53;;;;;;;;;;5055005;28;20842;-77
2021/03/23 14:24:06;;;;;;;16.57;13.10;;;;;;;;;;5054685;28;20818;-77
2021/03/23 14:26:32;;;;;;;22.13;14.30;;;;;;;;;;5054504;28;20849;-77
2021/03/23 14:28:58;;;;;;;18.67;13.00;;;;;;;;;;5054736;28;20402;-77
2021/03/23 14:31:25;;;;;;;17.93;13.60;;;;;;;;;;5054818;28;20487;-77
2021/03/23 14:33:51;;;;;;;17.80;13.23;;;;;;;;;;5054767;28;20457;-77
2021/03/23 14:36:20;;;;;;;18.50;14.63;;;;;;;;;;5036379;28;20224;-77
2021/03/23 14:38:46;;;;;;;16.50;12.23;;;;;;;;;;5054436;28;20782;-78